createdAt,value
2018-12-09T00:00:21.579Z,0.90
2018-12-09T00:02:49.894Z,0.90
2018-12-09T00:05:18.183Z,1.00
2018-12-09T00:07:46.491Z,1.13
2018-12-09T00:10:14.798Z,1.00
2018-12-09T00:12:43.209Z,0.83
2018-12-09T00:15:11.500Z,1.00
2018-12-09T00:17:39.825Z,0.90
2018-12-09T00:20:08.129Z,1.07
2018-12-09T00:22:36.439Z,0.90
2018-12-09T00:25:05.195Z,0.90
2018-12-09T00:27:33.570Z,0.97
2018-12-09T00:30:01.875Z,1.40
2018-12-09T00:32:30.162Z,1.17
2018-12-09T00:34:58.511Z,0.90
2018-12-09T00:37:26.897Z,1.00
2018-12-09T00:39:55.203Z,0.80
2018-12-09T00:42:23.526Z,0.97
2018-12-09T00:44:51.804Z,1.00
2018-12-09T00:47:20.138Z,0.90
2018-12-09T00:49:48.446Z,1.00
2018-12-09T00:52:16.734Z,0.87
2018-12-09T00:54:45.062Z,1.00
2018-12-09T00:57:13.328Z,1.00
2018-12-09T00:59:41.630Z,1.10
2018-12-09T01:02:10.139Z,1.17
2018-12-09T01:04:38.439Z,1.00
2018-12-09T01:07:06.744Z,1.10
2018-12-09T01:09:35.036Z,1.10
2018-12-09T01:12:03.313Z,0.97
2018-12-09T01:14:31.586Z,0.90
2018-12-09T01:16:59.883Z,1.27
2018-12-09T01:19:28.173Z,1.20
2018-12-09T01:21:56.477Z,1.13
2018-12-09T01:24:24.773Z,1.20
2018-12-09T01:26:53.073Z,0.90
2018-12-09T01:29:21.375Z,1.10
2018-12-09T01:31:49.672Z,0.93
2018-12-09T01:34:18.388Z,1.00
2018-12-09T01:36:46.680Z,1.00
2018-12-09T01:39:15.089Z,1.10
2018-12-09T01:41:43.473Z,1.20
2018-12-09T01:44:11.872Z,1.03
2018-12-09T01:46:40.157Z,1.00
2018-12-09T01:49:08.457Z,1.00
2018-12-09T01:51:36.773Z,1.00
2018-12-09T01:54:10.529Z,1.10
2018-12-09T01:56:39.401Z,1.10
2018-12-09T01:59:07.707Z,0.90
2018-12-09T02:01:36.093Z,1.10
2018-12-09T02:04:04.394Z,1.07
2018-12-09T02:06:33.519Z,1.37
2018-12-09T02:09:01.854Z,1.20
2018-12-09T02:11:30.113Z,0.93
2018-12-09T02:13:58.494Z,0.90
2018-12-09T02:16:26.804Z,1.10
2018-12-09T02:19:08.080Z,0.90
2018-12-09T02:21:36.479Z,1.10
2018-12-09T02:24:04.755Z,1.00
2018-12-09T02:26:33.554Z,0.93
2018-12-09T02:29:01.951Z,1.00
2018-12-09T02:31:30.249Z,0.80
2018-12-09T02:33:58.623Z,1.00
2018-12-09T02:36:26.973Z,1.03
2018-12-09T02:38:55.257Z,0.87
2018-12-09T02:41:23.671Z,1.00
2018-12-09T02:43:52.049Z,1.00
2018-12-09T02:46:20.853Z,1.13
2018-12-09T02:48:49.551Z,1.20
2018-12-09T02:51:17.934Z,1.00
2018-12-09T02:53:46.211Z,0.90
2018-12-09T02:56:14.497Z,1.00
2018-12-09T02:58:42.776Z,1.30
2018-12-09T03:01:11.165Z,0.90
2018-12-09T03:03:39.454Z,0.87
2018-12-09T03:06:07.756Z,1.00
2018-12-09T03:08:36.065Z,0.93
2018-12-09T03:11:04.841Z,1.10
2018-12-09T03:13:33.156Z,1.00
2018-12-09T03:16:01.433Z,1.13
2018-12-09T03:18:29.734Z,0.80
2018-12-09T03:20:58.068Z,1.00
2018-12-09T03:23:26.789Z,1.00
2018-12-09T03:25:55.106Z,1.13
2018-12-09T03:28:23.509Z,1.07
2018-12-09T03:30:51.880Z,1.10
2018-12-09T03:33:20.260Z,1.10
2018-12-09T03:35:48.679Z,1.10
2018-12-09T03:38:16.965Z,0.90
2018-12-09T03:40:45.246Z,1.00
2018-12-09T03:43:13.704Z,1.23
2018-12-09T03:45:43.556Z,0.93
2018-12-09T03:48:12.077Z,0.97
2018-12-09T03:50:40.371Z,1.10
2018-12-09T03:53:08.665Z,1.10
2018-12-09T03:55:37.085Z,1.17
2018-12-09T03:58:05.462Z,1.10
2018-12-09T04:00:33.937Z,1.00
2018-12-09T04:03:02.211Z,1.00
2018-12-09T04:05:30.491Z,1.03
2018-12-09T04:07:58.897Z,1.07
2018-12-09T04:10:27.235Z,1.20
2018-12-09T04:12:55.543Z,1.10
2018-12-09T04:17:58.525Z,1.20
2018-12-09T04:20:27.001Z,1.20
2018-12-09T04:22:55.392Z,1.20
2018-12-09T04:25:23.681Z,1.10
2018-12-09T04:27:51.977Z,1.27
2018-12-09T04:30:20.305Z,1.03
2018-12-09T04:32:48.592Z,1.10
2018-12-09T04:35:16.879Z,0.90
2018-12-09T04:37:45.251Z,0.83
2018-12-09T04:40:13.625Z,1.33
2018-12-09T04:42:41.916Z,1.17
2018-12-09T04:45:10.206Z,1.10
2018-12-09T04:47:38.506Z,1.10
2018-12-09T04:50:07.421Z,1.30
2018-12-09T04:52:35.741Z,1.30
2018-12-09T04:55:04.441Z,1.17
2018-12-09T04:57:32.726Z,1.00
2018-12-09T05:00:12.348Z,1.07
2018-12-09T05:02:40.736Z,0.90
2018-12-09T05:05:09.010Z,1.30
2018-12-09T05:07:38.093Z,1.40
2018-12-09T05:10:06.420Z,1.53
2018-12-09T05:12:34.787Z,1.70
2018-12-09T05:15:03.192Z,1.50
2018-12-09T05:17:31.574Z,1.60
2018-12-09T05:19:59.870Z,1.47
2018-12-09T05:22:28.156Z,2.00
2018-12-09T05:24:56.446Z,2.00
2018-12-09T05:27:24.721Z,1.97
2018-12-09T05:29:53.187Z,2.50
2018-12-09T05:32:21.470Z,2.63
2018-12-09T05:34:49.771Z,2.67
2018-12-09T05:37:18.150Z,3.23
2018-12-09T05:39:46.566Z,3.13
2018-12-09T05:42:14.851Z,3.20
2018-12-09T05:44:43.143Z,3.50
2018-12-09T05:47:11.492Z,3.20
2018-12-09T05:49:39.892Z,3.17
2018-12-09T05:52:08.514Z,3.20
2018-12-09T05:54:36.794Z,3.73
2018-12-09T05:57:05.124Z,3.37
2018-12-09T05:59:33.410Z,3.83
2018-12-09T06:02:13.046Z,4.20
2018-12-09T06:04:41.324Z,3.57
2018-12-09T06:07:09.596Z,3.67
2018-12-09T06:09:37.882Z,4.20
2018-12-09T06:12:06.222Z,4.20
2018-12-09T06:14:34.906Z,3.70
2018-12-09T06:17:03.191Z,4.13
2018-12-09T06:19:31.577Z,4.10
2018-12-09T06:21:59.941Z,4.60
2018-12-09T06:24:28.238Z,4.40
2018-12-09T06:26:56.760Z,3.97
2018-12-09T06:29:25.069Z,4.20
2018-12-09T06:31:53.408Z,4.70
2018-12-09T06:34:21.710Z,4.30
2018-12-09T06:36:50.008Z,4.33
2018-12-09T06:39:18.290Z,4.47
2018-12-09T06:41:46.690Z,4.10
2018-12-09T06:44:14.982Z,4.30
2018-12-09T06:46:43.286Z,4.03
2018-12-09T06:49:11.560Z,4.80
2018-12-09T06:51:39.943Z,4.23
2018-12-09T06:54:08.248Z,3.97
2018-12-09T06:56:36.706Z,4.33
2018-12-09T06:59:05.001Z,4.60
2018-12-09T07:01:33.432Z,4.70
2018-12-09T07:04:01.748Z,4.80
2018-12-09T07:06:33.225Z,4.40
2018-12-09T07:09:01.598Z,3.87
2018-12-09T07:11:29.965Z,4.07
2018-12-09T07:13:58.247Z,4.40
2018-12-09T07:16:26.771Z,4.10
2018-12-09T07:18:55.131Z,4.10
2018-12-09T07:21:23.421Z,5.00
2018-12-09T07:23:51.855Z,4.57
2018-12-09T07:26:20.305Z,4.37
2018-12-09T07:28:48.675Z,4.60
2018-12-09T07:31:17.021Z,4.00
2018-12-09T07:33:45.330Z,4.23
2018-12-09T07:36:13.716Z,4.43
2018-12-09T07:38:42.155Z,4.17
2018-12-09T07:41:10.471Z,4.30
2018-12-09T07:43:38.778Z,4.20
2018-12-09T07:46:07.063Z,3.90
2018-12-09T07:48:35.363Z,4.13
2018-12-09T07:51:03.695Z,4.07
2018-12-09T07:53:32.095Z,4.07
2018-12-09T07:56:00.365Z,4.20
2018-12-09T07:58:28.659Z,4.33
2018-12-09T08:00:56.951Z,4.40
2018-12-09T08:03:25.263Z,4.07
2018-12-09T08:05:53.569Z,4.20
2018-12-09T08:08:21.875Z,3.80
2018-12-09T08:10:50.233Z,3.93
2018-12-09T08:13:18.521Z,3.90
2018-12-09T08:15:46.815Z,4.03
2018-12-09T08:18:15.120Z,4.10
2018-12-09T08:20:43.413Z,4.27
2018-12-09T08:23:11.725Z,4.23
2018-12-09T08:25:40.014Z,3.53
2018-12-09T08:28:11.953Z,3.47
2018-12-09T08:30:40.237Z,3.33
2018-12-09T08:33:08.547Z,3.87
2018-12-09T08:35:36.877Z,4.10
2018-12-09T08:38:05.205Z,3.53
2018-12-09T08:40:33.537Z,3.70
2018-12-09T08:43:01.827Z,3.80
2018-12-09T08:45:31.361Z,3.57
2018-12-09T08:47:59.677Z,3.77
2018-12-09T08:50:28.094Z,3.50
2018-12-09T08:52:56.383Z,3.40
2018-12-09T08:55:24.680Z,4.07
2018-12-09T08:57:53.029Z,3.40
2018-12-09T09:00:21.343Z,3.73
2018-12-09T09:02:49.708Z,4.23
2018-12-09T09:05:18.011Z,3.53
2018-12-09T09:07:46.317Z,3.60
2018-12-09T09:10:16.012Z,3.60
2018-12-09T09:12:44.327Z,3.37
2018-12-09T09:15:12.667Z,3.60
2018-12-09T09:17:41.153Z,3.50
2018-12-09T09:20:09.527Z,3.50
2018-12-09T09:22:37.929Z,3.47
2018-12-09T09:25:06.232Z,3.30
2018-12-09T09:27:34.549Z,3.33
2018-12-09T09:30:02.868Z,3.57
2018-12-09T09:32:31.234Z,3.77
2018-12-09T09:34:59.557Z,3.40
2018-12-09T09:37:28.887Z,3.07
2018-12-09T09:39:57.198Z,3.20
2018-12-09T09:42:25.494Z,3.57
2018-12-09T09:44:53.814Z,3.03
2018-12-09T09:47:26.046Z,2.90
2018-12-09T09:49:54.374Z,3.00
2018-12-09T09:52:22.679Z,3.37
2018-12-09T09:54:51.028Z,3.03
2018-12-09T09:57:19.339Z,3.00
2018-12-09T09:59:49.748Z,3.10
2018-12-09T10:02:19.787Z,3.10
2018-12-09T10:04:48.074Z,3.20
2018-12-09T10:07:16.429Z,2.80
2018-12-09T10:09:44.749Z,3.00
2018-12-09T10:12:13.113Z,2.90
2018-12-09T10:14:41.423Z,3.17
2018-12-09T10:17:09.729Z,2.73
2018-12-09T10:19:38.100Z,2.67
2018-12-09T10:22:06.413Z,2.77
2018-12-09T10:24:35.560Z,2.40
2018-12-09T10:27:03.948Z,2.67
2018-12-09T10:29:33.500Z,2.80
2018-12-09T10:32:01.844Z,2.87
2018-12-09T10:34:30.230Z,2.70
2018-12-09T10:36:58.902Z,2.97
2018-12-09T10:39:27.866Z,2.70
2018-12-09T10:41:56.290Z,2.93
2018-12-09T10:44:24.599Z,3.00
2018-12-09T10:46:52.881Z,2.53
2018-12-09T10:49:21.234Z,2.90
2018-12-09T10:51:49.526Z,2.40
2018-12-09T10:54:17.920Z,3.00
2018-12-09T10:56:46.260Z,2.70
2018-12-09T10:59:14.590Z,3.00
2018-12-09T11:01:47.111Z,2.67
2018-12-09T11:04:16.755Z,2.00
2018-12-09T11:06:45.096Z,2.50
2018-12-09T11:09:13.417Z,2.30
2018-12-09T11:11:41.724Z,2.50
2018-12-09T11:14:10.025Z,2.67
2018-12-09T11:16:38.347Z,2.20
2018-12-09T11:19:06.683Z,2.13
2018-12-09T11:21:35.229Z,2.57
2018-12-09T11:24:03.546Z,2.80
2018-12-09T11:26:31.874Z,2.50
2018-12-09T11:29:01.172Z,2.30
2018-12-09T11:31:29.699Z,2.43
2018-12-09T11:33:58.997Z,2.23
2018-12-09T11:36:27.355Z,2.17
2018-12-09T11:38:55.694Z,2.37
2018-12-09T11:41:24.058Z,2.43
2018-12-09T11:43:52.444Z,2.60
2018-12-09T11:46:20.767Z,2.50
2018-12-09T11:48:49.128Z,2.20
2018-12-09T11:51:17.478Z,2.73
2018-12-09T11:53:45.808Z,2.10
2018-12-09T11:56:14.140Z,2.33
2018-12-09T11:58:42.486Z,2.00
2018-12-09T12:01:10.858Z,2.37
2018-12-09T12:03:39.522Z,2.50
2018-12-09T12:06:07.964Z,2.07
2018-12-09T12:08:36.431Z,2.13
2018-12-09T12:11:04.758Z,2.03
2018-12-09T12:13:33.155Z,2.17
2018-12-09T12:16:01.678Z,2.30
2018-12-09T12:18:30.008Z,1.83
2018-12-09T12:20:58.424Z,2.30
2018-12-09T12:23:26.759Z,1.90
2018-12-09T12:25:55.653Z,2.17
2018-12-09T12:28:24.085Z,2.20
2018-12-09T12:30:52.452Z,1.90
2018-12-09T12:33:20.807Z,2.03
2018-12-09T12:35:49.243Z,2.00
2018-12-09T12:38:17.591Z,1.63
2018-12-09T12:40:45.932Z,2.10
2018-12-09T12:43:14.658Z,1.73
2018-12-09T12:45:43.013Z,2.00
2018-12-09T12:48:11.365Z,1.90
2018-12-09T12:50:39.721Z,2.10
2018-12-09T12:53:08.061Z,2.10
2018-12-09T12:55:36.404Z,1.97
2018-12-09T12:58:04.739Z,1.90
2018-12-09T13:00:33.092Z,1.80
2018-12-09T13:03:01.420Z,2.03
2018-12-09T13:05:29.791Z,1.80
2018-12-09T13:07:58.181Z,2.00
2018-12-09T13:10:26.516Z,1.90
2018-12-09T13:12:54.880Z,1.60
2018-12-09T13:15:23.312Z,1.90
2018-12-09T13:17:51.746Z,2.30
2018-12-09T13:20:20.215Z,1.90
2018-12-09T13:22:48.925Z,2.00
2018-12-09T13:25:17.307Z,2.00
2018-12-09T13:27:45.719Z,1.90
2018-12-09T13:30:14.170Z,2.00
2018-12-09T13:32:42.576Z,2.13
2018-12-09T13:35:10.934Z,1.60
2018-12-09T13:37:39.250Z,1.60
2018-12-09T13:40:07.713Z,2.20
2018-12-09T13:42:36.180Z,1.87
2018-12-09T13:45:05.146Z,1.90
2018-12-09T13:47:33.650Z,1.90
2018-12-09T13:50:02.206Z,1.80
2018-12-09T13:52:30.679Z,2.10
2018-12-09T13:54:59.031Z,1.90
2018-12-09T13:57:27.937Z,1.97
2018-12-09T13:59:56.354Z,1.83
2018-12-09T14:02:24.755Z,1.77
2018-12-09T14:04:53.623Z,1.63
2018-12-09T14:07:22.025Z,1.93
2018-12-09T14:09:50.436Z,1.90
2018-12-09T14:12:18.833Z,1.80
2018-12-09T14:14:47.206Z,1.70
2018-12-09T14:17:15.724Z,1.80
2018-12-09T14:19:44.159Z,1.90
2018-12-09T14:22:12.555Z,1.70
2018-12-09T14:24:40.977Z,1.53
2018-12-09T14:27:09.398Z,1.60
2018-12-09T14:29:37.808Z,1.80
2018-12-09T14:32:06.851Z,1.67
2018-12-09T14:34:36.409Z,1.77
2018-12-09T14:37:04.875Z,1.67
2018-12-09T14:39:34.364Z,1.60
2018-12-09T14:42:02.971Z,1.57
2018-12-09T14:44:31.377Z,1.90
2018-12-09T14:46:59.777Z,1.90
2018-12-09T14:49:28.207Z,1.60
2018-12-09T14:51:56.591Z,1.80
2018-12-09T14:54:24.951Z,1.73
2018-12-09T14:56:53.338Z,1.63
2018-12-09T14:59:21.754Z,1.47
2018-12-09T15:01:50.153Z,1.90
2018-12-09T15:04:18.511Z,1.70
2018-12-09T15:06:47.591Z,1.63
2018-12-09T15:09:16.005Z,1.53
2018-12-09T15:11:44.520Z,1.80
2018-12-09T15:14:12.954Z,1.57
2018-12-09T15:16:41.382Z,1.80
2018-12-09T15:19:10.271Z,2.00
2018-12-09T15:21:38.637Z,1.60
2018-12-09T15:24:07.047Z,1.90
2018-12-09T15:26:35.423Z,1.90
2018-12-09T15:29:03.857Z,2.00
2018-12-09T15:31:32.833Z,1.60
2018-12-09T15:34:01.214Z,2.00
2018-12-09T15:36:29.626Z,1.50
2018-12-09T15:38:58.534Z,1.93
2018-12-09T15:41:26.983Z,1.80
2018-12-09T15:43:55.768Z,1.70
2018-12-09T15:46:24.216Z,1.60
2018-12-09T15:48:52.651Z,1.77
2018-12-09T15:51:21.375Z,1.70
2018-12-09T15:53:49.737Z,1.53
2018-12-09T15:56:18.277Z,1.63
2018-12-09T15:58:46.797Z,1.73
2018-12-09T16:01:15.285Z,1.83
2018-12-09T16:03:43.786Z,1.60
2018-12-09T16:06:12.317Z,1.80
2018-12-09T16:08:40.711Z,1.63
2018-12-09T16:11:09.625Z,1.90
2018-12-09T16:13:38.037Z,1.70
2018-12-09T16:16:06.543Z,1.73
2018-12-09T16:18:34.935Z,1.70
2018-12-09T16:21:03.411Z,1.70
2018-12-09T16:23:32.093Z,1.60
2018-12-09T16:26:00.513Z,1.60
2018-12-09T16:28:30.972Z,1.93
2018-12-09T16:30:59.358Z,1.80
2018-12-09T16:33:27.760Z,1.70
2018-12-09T16:35:56.145Z,2.10
2018-12-09T16:38:25.296Z,1.70
2018-12-09T16:40:53.674Z,1.77
2018-12-09T16:43:22.067Z,2.00
2018-12-09T16:45:50.519Z,1.83
2018-12-09T16:48:19.602Z,1.50
2018-12-09T16:50:48.036Z,1.60
2018-12-09T16:53:16.430Z,1.90
2018-12-09T16:55:44.851Z,1.70
2018-12-09T16:58:13.280Z,1.87
2018-12-09T17:00:41.703Z,1.60
2018-12-09T17:03:10.149Z,1.60
2018-12-09T17:05:38.525Z,1.60
2018-12-09T17:08:06.922Z,1.90
2018-12-09T17:10:35.500Z,1.50
2018-12-09T17:13:03.932Z,1.70
2018-12-09T17:15:32.313Z,1.90
2018-12-09T17:18:00.741Z,1.80
2018-12-09T17:20:29.143Z,1.90
2018-12-09T17:22:57.606Z,1.97
2018-12-09T17:25:26.033Z,1.67
2018-12-09T17:27:54.981Z,1.80
2018-12-09T17:30:23.701Z,1.80
2018-12-09T17:32:53.069Z,1.80
2018-12-09T17:35:21.543Z,1.60
2018-12-09T17:37:49.999Z,1.80
2018-12-09T17:40:18.575Z,1.73
2018-12-09T17:42:47.502Z,1.80
2018-12-09T17:45:15.969Z,1.80
2018-12-09T17:47:45.327Z,1.70
2018-12-09T17:50:13.827Z,1.83
2018-12-09T17:52:42.306Z,1.90
2018-12-09T17:55:10.689Z,1.67
2018-12-09T17:57:39.153Z,1.77
2018-12-09T18:00:08.935Z,1.60
2018-12-09T18:02:37.659Z,1.70
2018-12-09T18:05:06.392Z,1.77
2018-12-09T18:07:35.368Z,1.60
2018-12-09T18:10:04.863Z,1.57
2018-12-09T18:12:33.666Z,1.80
2018-12-09T18:15:02.067Z,1.70
2018-12-09T18:17:31.445Z,1.50
2018-12-09T18:20:01.095Z,1.53
2018-12-09T18:22:29.728Z,1.87
2018-12-09T18:25:00.071Z,1.80
2018-12-09T18:27:28.531Z,1.80
2018-12-09T18:29:57.266Z,2.17
2018-12-09T18:32:25.929Z,1.70
2018-12-09T18:34:54.968Z,1.63
2018-12-09T18:37:24.007Z,1.70
2018-12-09T18:39:52.505Z,1.60
2018-12-09T18:42:21.591Z,1.47
2018-12-09T18:44:50.954Z,1.60
2018-12-09T18:47:19.749Z,1.40
2018-12-09T18:49:48.316Z,1.63
2018-12-09T18:52:17.572Z,1.70
2018-12-09T18:54:46.026Z,1.90
2018-12-09T18:57:14.773Z,1.43
2018-12-09T18:59:43.396Z,1.70
2018-12-09T19:02:11.914Z,1.57
2018-12-09T19:04:40.431Z,1.70
2018-12-09T19:07:08.975Z,1.90
2018-12-09T19:09:37.607Z,1.77
2018-12-09T19:12:06.407Z,1.70
2018-12-09T19:14:35.192Z,1.70
2018-12-09T19:17:03.968Z,1.83
2018-12-09T19:19:32.421Z,1.80
2018-12-09T19:22:00.996Z,1.80
2018-12-09T19:24:29.956Z,1.73
2018-12-09T19:26:58.482Z,1.70
2018-12-09T19:29:27.735Z,1.80
2018-12-09T19:31:56.152Z,1.80
2018-12-09T19:34:25.859Z,1.77
2018-12-09T19:36:55.254Z,1.80
2018-12-09T19:39:23.752Z,1.80
2018-12-09T19:41:52.488Z,1.83
2018-12-09T19:44:22.489Z,1.70
2018-12-09T19:46:51.017Z,1.63
2018-12-09T19:49:20.518Z,1.60
2018-12-09T19:51:49.963Z,1.80
2018-12-09T19:54:19.850Z,1.80
2018-12-09T19:56:48.305Z,1.70
2018-12-09T19:59:17.652Z,1.53
2018-12-09T20:01:46.112Z,1.60
2018-12-09T20:04:15.569Z,1.60
2018-12-09T20:06:44.134Z,1.60
2018-12-09T20:09:13.680Z,1.70
2018-12-09T20:11:44.136Z,1.60
2018-12-09T20:14:12.960Z,1.63
2018-12-09T20:16:41.402Z,1.60
2018-12-09T20:19:11.515Z,1.77
2018-12-09T20:21:40.332Z,2.30
2018-12-09T20:24:08.790Z,2.20
2018-12-09T20:26:38.040Z,1.87
2018-12-09T20:29:06.769Z,2.00
2018-12-09T20:31:36.312Z,1.90
2018-12-09T20:34:04.772Z,2.23
2018-12-09T20:36:33.843Z,2.40
2018-12-09T20:39:03.904Z,2.00
2018-12-09T20:41:32.405Z,2.30
2018-12-09T20:44:01.780Z,2.03
2018-12-09T20:46:30.240Z,1.90
2018-12-09T20:49:00.124Z,1.83
2018-12-09T20:51:28.971Z,2.00
2018-12-09T20:53:57.670Z,1.50
2018-12-09T20:56:26.214Z,2.10
2018-12-09T20:58:55.004Z,2.00
2018-12-09T21:01:23.470Z,2.17
2018-12-09T21:03:52.035Z,2.13
2018-12-09T21:06:20.551Z,2.10
2018-12-09T21:08:49.016Z,1.87
2018-12-09T21:11:17.474Z,1.90
2018-12-09T21:13:46.507Z,1.93
2018-12-09T21:16:14.964Z,1.63
2018-12-09T21:18:46.408Z,2.17
2018-12-09T21:21:14.853Z,2.17
2018-12-09T21:23:43.394Z,2.00
2018-12-09T21:26:12.747Z,1.90
2018-12-09T21:28:41.662Z,1.90
2018-12-09T21:31:10.076Z,2.23
2018-12-09T21:33:39.591Z,2.10
2018-12-09T21:36:08.011Z,2.30
2018-12-09T21:38:38.272Z,1.70
2018-12-09T21:41:06.706Z,2.00
2018-12-09T21:43:35.214Z,2.00
2018-12-09T21:46:03.640Z,1.80
2018-12-09T21:48:32.064Z,1.83
2018-12-09T21:51:01.513Z,2.00
2018-12-09T21:53:30.224Z,1.90
2018-12-09T21:55:58.958Z,1.80
2018-12-09T21:58:27.347Z,1.77
2018-12-09T22:00:55.710Z,2.10
2018-12-09T22:03:24.782Z,1.70
2018-12-09T22:05:53.208Z,2.00
2018-12-09T22:08:21.580Z,1.87
2018-12-09T22:10:49.930Z,1.80
2018-12-09T22:13:18.348Z,1.97
2018-12-09T22:15:46.690Z,1.90
2018-12-09T22:18:15.022Z,1.90
2018-12-09T22:20:43.372Z,1.67
2018-12-09T22:23:11.666Z,1.80
2018-12-09T22:25:40.002Z,1.87
2018-12-09T22:28:08.294Z,1.80
2018-12-09T22:30:36.624Z,1.87
2018-12-09T22:33:04.924Z,1.87
2018-12-09T22:35:33.264Z,1.60
2018-12-09T22:38:01.575Z,1.60
2018-12-09T22:40:29.905Z,1.67
2018-12-09T22:42:58.206Z,1.80
2018-12-09T22:45:26.537Z,1.70
2018-12-09T22:47:54.856Z,1.50
2018-12-09T22:50:23.161Z,1.60
2018-12-09T22:52:51.477Z,1.80
2018-12-09T22:55:19.782Z,1.80
2018-12-09T22:57:48.091Z,1.80
2018-12-09T23:00:23.419Z,1.57
2018-12-09T23:02:57.420Z,1.90
2018-12-09T23:05:25.819Z,1.70
2018-12-09T23:07:54.977Z,1.60
2018-12-09T23:10:23.248Z,1.60
2018-12-09T23:12:51.543Z,1.53
2018-12-09T23:15:19.839Z,1.70
2018-12-09T23:17:48.161Z,1.60
2018-12-09T23:20:16.439Z,1.90
2018-12-09T23:22:44.771Z,1.63
2018-12-09T23:25:13.057Z,1.50
2018-12-09T23:27:41.350Z,1.70
2018-12-09T23:30:10.229Z,1.70
2018-12-09T23:32:38.531Z,1.60
2018-12-09T23:35:07.673Z,1.60
2018-12-09T23:37:36.230Z,1.43
2018-12-09T23:40:06.543Z,1.50
2018-12-09T23:42:34.840Z,1.43
2018-12-09T23:45:03.156Z,1.43
2018-12-09T23:47:31.439Z,1.63
2018-12-09T23:49:59.726Z,1.67
2018-12-09T23:52:28.056Z,1.70
2018-12-09T23:54:56.324Z,1.60
2018-12-09T23:57:24.619Z,1.50
2018-12-09T23:59:52.912Z,1.80
